Glen Gardner, NJ (08826)

12:38 AM EST on December 03, 2016 (GMT -0500)
Woodglen | | Change Station

Elev 980 ft 40.72 °N, 74.89 °W | Updated 19 seconds ago

Overcast
Overcast
37.8 °F
Feels Like 38 °F
N
0.0
Wind Variable Wind from WNW
Gusts 5.0 mph

Today
High -- | Low -- °F
--% Chance of Precip.
Yesterday
High -- | Low -- °F
Precip. -- in
Pressure 29.94 in
Visibility 10.0 miles
Clouds Overcast 5500 ft
Windchill 38 °F
Dew Point 32 °F
Humidity 81%
Rainfall 0.00 in
Snow Depth Not available.
7:06 AM 4:32 PM
Waxing Crescent, 12% visible
METAR KSMQ 030453Z AUTO VRB04KT 10SM OVC055 06/M01 A2994 RMK AO2 SLP138 T00611011 401111011
Pressure 29.94 in
Visibility 10.0 miles
Clouds Overcast 5500 ft
Windchill 38 °F
Dew Point 32 °F
Humidity 81%
Rainfall 0.00 in
Snow Depth Not available.
7:06 AM 4:32 PM
Waxing Crescent, 12% visible
METAR KSMQ 030453Z AUTO VRB04KT 10SM OVC055 06/M01 A2994 RMK AO2 SLP138 T00611011 401111011

10-Day Weather Forecast

Almanac

Astronomy

Dec. 03, 2016 Rise Set
Actual Time
Civil Twilight
Nautical Twilight
Astronomical Twilight
Moon
Length of Visible Light
Length of Day
Tomorrow will be .
, % of the Moon is Illuminated

Today's Extremes

State Highs State Lows

Community

WunderPhotos

Upload Photos

1,955,413 photos uploaded!

WunderBlog® & News

Nearby

Air Quality

  Air Quality AQ Index Pollutant
Not available.

Snow Depth

Station Depth Elevation

Earthquake Activity

City Distance Mag. Time & Date
Minimum magnitude displayed is 2.5.

Coastal Water Temperatures

Place Temperature

Stations

Nearby Weather Stations

Station Location Temp. Windchill Dew Point Humidity Wind Precip. Elev Updated Type
                   

Watches & Warnings

There are currently no watches in effect.